createdAt,value
2023-01-15T00:04:42.223Z,11.86
2023-01-15T00:09:42.287Z,11.80
2023-01-15T00:14:42.138Z,11.89
2023-01-15T00:19:45.959Z,12.12
2023-01-15T00:24:49.227Z,11.85
2023-01-15T00:29:49.477Z,12.51
2023-01-15T00:34:41.848Z,12.02
2023-01-15T00:39:41.866Z,11.97
2023-01-15T00:44:41.709Z,11.99
2023-01-15T00:49:41.758Z,12.13
2023-01-15T00:54:41.694Z,12.08
2023-01-15T00:59:41.580Z,12.12
2023-01-15T01:04:41.676Z,12.05
2023-01-15T01:09:41.582Z,11.89
2023-01-15T01:14:41.318Z,12.02
2023-01-15T01:19:44.387Z,12.09
2023-01-15T01:24:41.214Z,11.77
2023-01-15T01:29:50.608Z,12.49
2023-01-15T01:34:41.089Z,12.42
2023-01-15T01:39:41.176Z,12.27
2023-01-15T01:44:40.949Z,12.66
2023-01-15T01:49:40.908Z,12.42
2023-01-15T01:54:40.832Z,12.60
2023-01-15T01:59:40.799Z,12.49
2023-01-15T02:04:40.647Z,12.54
2023-01-15T02:09:40.611Z,12.67
2023-01-15T02:14:40.553Z,12.56
2023-01-15T02:19:43.588Z,12.88
2023-01-15T02:24:40.397Z,12.38
2023-01-15T02:29:40.377Z,12.75
2023-01-15T02:34:40.297Z,12.71
2023-01-15T02:39:40.378Z,12.82
2023-01-15T02:44:40.172Z,13.12
2023-01-15T02:49:40.223Z,13.11
2023-01-15T02:54:40.198Z,12.84
2023-01-15T02:59:40.809Z,13.04
2023-01-15T03:04:40.077Z,13.17
2023-01-15T03:09:39.899Z,13.06
2023-01-15T03:14:39.758Z,12.81
2023-01-15T03:19:42.749Z,13.21
2023-01-15T03:24:39.665Z,13.11
2023-01-15T03:29:39.575Z,13.46
2023-01-15T03:34:39.507Z,13.61
2023-01-15T03:39:40.266Z,13.20
2023-01-15T03:44:39.533Z,13.63
2023-01-15T03:49:39.505Z,12.77
2023-01-15T03:54:39.272Z,12.04
2023-01-15T03:59:40.265Z,11.59
2023-01-15T04:06:18.542Z,10.89
2023-01-15T04:13:13.841Z,10.96
2023-01-15T04:18:13.723Z,10.71
2023-01-15T04:23:13.700Z,10.73
2023-01-15T04:28:13.662Z,10.60
2023-01-15T04:33:13.693Z,10.76
2023-01-15T04:38:13.646Z,10.44
2023-01-15T05:49:07.567Z,9.38
2023-01-15T05:59:46.522Z,8.90
2023-01-15T06:04:46.178Z,8.83
2023-01-15T06:09:47.381Z,8.53
2023-01-15T06:24:21.850Z,8.11
2023-01-15T06:29:21.495Z,8.18
2023-01-15T06:34:21.518Z,8.32
2023-01-15T06:39:21.618Z,8.21
2023-01-15T06:44:22.504Z,8.08
2023-01-15T06:49:21.202Z,8.02
2023-01-15T07:03:41.528Z,8.55
2023-01-15T07:08:40.297Z,8.39
2023-01-15T07:13:40.249Z,8.58
2023-01-15T07:18:40.311Z,8.11
2023-01-15T07:23:40.158Z,8.17
2023-01-15T07:28:40.023Z,8.29
2023-01-15T07:33:40.174Z,8.21
2023-01-15T07:38:39.991Z,8.45
2023-01-15T07:43:39.991Z,8.72
2023-01-15T07:48:39.964Z,8.75
2023-01-15T07:53:42.708Z,8.69
2023-01-15T07:58:39.688Z,8.12
2023-01-15T08:05:35.917Z,7.96
2023-01-15T08:12:03.779Z,8.63
2023-01-15T08:17:03.669Z,8.39
2023-01-15T08:22:03.441Z,8.32
2023-01-15T08:27:03.365Z,8.45
2023-01-15T08:32:03.511Z,8.50
2023-01-15T08:37:03.300Z,8.28
2023-01-15T08:42:03.257Z,8.54
2023-01-15T08:47:03.095Z,8.60
2023-01-15T08:52:03.239Z,8.83
2023-01-15T08:57:02.975Z,8.90
2023-01-15T09:02:06.212Z,8.75
2023-01-15T09:07:02.905Z,8.57
2023-01-15T09:12:02.973Z,9.05
2023-01-15T09:17:02.739Z,8.76
2023-01-15T09:22:04.289Z,8.93
2023-01-15T09:27:02.563Z,8.73
2023-01-15T09:32:02.593Z,9.32
2023-01-15T09:37:02.616Z,9.38
2023-01-15T09:42:02.454Z,9.66
2023-01-15T09:47:02.293Z,9.46
2023-01-15T09:52:02.253Z,9.38
2023-01-15T09:57:02.235Z,9.31
2023-01-15T10:02:05.132Z,9.24
2023-01-15T10:07:02.317Z,9.21
2023-01-15T10:12:02.005Z,9.43
2023-01-15T10:17:01.976Z,9.27
2023-01-15T10:22:02.213Z,9.20
2023-01-15T10:28:19.509Z,9.39
2023-01-15T10:33:19.353Z,9.56
2023-01-15T10:38:19.349Z,9.40
2023-01-15T10:43:19.469Z,9.34
2023-01-15T10:48:19.150Z,9.56
2023-01-15T10:53:19.138Z,9.50
2023-01-15T10:58:19.138Z,9.21
2023-01-15T11:03:18.898Z,9.45
2023-01-15T11:09:02.207Z,9.49
2023-01-15T11:13:19.937Z,9.40
2023-01-15T11:18:21.698Z,9.13
2023-01-15T11:23:18.682Z,9.16
2023-01-15T11:28:21.236Z,9.43
2023-01-15T11:33:18.482Z,9.48
2023-01-15T11:38:18.637Z,9.35
2023-01-15T11:43:18.789Z,9.28
2023-01-15T11:48:26.040Z,9.83
2023-01-15T11:53:18.647Z,9.39
2023-01-15T11:58:18.228Z,9.45
2023-01-15T12:03:18.103Z,9.46
2023-01-15T12:08:18.112Z,9.39
2023-01-15T12:13:17.973Z,8.78
2023-01-15T12:18:20.919Z,9.68
2023-01-15T12:23:17.870Z,9.13
2023-01-15T12:28:17.880Z,9.56
2023-01-15T12:33:17.686Z,9.40
2023-01-15T12:38:17.679Z,9.15
2023-01-15T12:43:17.519Z,9.40
2023-01-15T12:48:17.649Z,9.38
2023-01-15T12:53:25.409Z,9.99
2023-01-15T12:58:25.017Z,9.66
2023-01-15T13:03:25.307Z,9.75
2023-01-15T13:08:25.019Z,9.53
2023-01-15T13:13:17.301Z,9.42
2023-01-15T13:18:20.256Z,9.15
2023-01-15T13:23:17.064Z,8.71
2023-01-15T13:28:17.001Z,8.91
2023-01-15T13:33:17.049Z,9.35
2023-01-15T13:38:16.966Z,9.39
2023-01-15T13:44:56.675Z,9.06
2023-01-15T13:49:56.179Z,9.21
2023-01-15T13:54:56.393Z,8.83
2023-01-15T13:59:55.965Z,9.04
2023-01-15T14:04:56.036Z,8.53
2023-01-15T14:09:55.909Z,8.54
2023-01-15T14:14:55.920Z,8.63
2023-01-15T14:19:56.159Z,8.72
2023-01-15T14:24:55.846Z,8.48
2023-01-15T14:30:03.687Z,8.62
2023-01-15T14:34:58.743Z,8.36
2023-01-15T14:39:55.535Z,8.04
2023-01-15T14:44:55.399Z,8.39
2023-01-15T14:49:55.425Z,8.29
2023-01-15T14:54:55.300Z,8.30
2023-01-15T14:59:55.554Z,8.03
2023-01-15T16:03:14.178Z,7.44
2023-01-15T18:06:36.584Z,7.26
2023-01-15T18:11:36.238Z,7.17
2023-01-15T18:16:37.586Z,7.02
2023-01-15T18:21:36.092Z,7.19
2023-01-15T18:26:36.054Z,6.99
2023-01-15T18:31:36.179Z,7.12
2023-01-15T18:36:36.084Z,7.15
2023-01-15T18:41:35.807Z,7.16
2023-01-15T18:46:35.817Z,7.15
2023-01-15T18:51:35.794Z,7.13
2023-01-15T18:56:38.663Z,6.99
2023-01-15T19:01:35.695Z,6.69
2023-01-15T19:06:35.696Z,7.16
2023-01-15T19:11:35.391Z,7.02
2023-01-15T19:16:43.898Z,7.22
2023-01-15T19:21:47.016Z,7.29
2023-01-15T19:26:35.243Z,7.12
2023-01-15T19:31:36.923Z,7.32
2023-01-15T19:36:35.251Z,7.08
2023-01-15T19:41:35.208Z,6.83
2023-01-15T19:46:35.056Z,7.05
2023-01-15T19:51:34.960Z,6.81
2023-01-15T19:56:37.870Z,7.17
2023-01-15T20:01:34.929Z,6.97
2023-01-15T20:06:34.768Z,7.05
2023-01-15T20:11:34.608Z,7.07
2023-01-15T20:16:34.861Z,7.05
2023-01-15T20:24:35.616Z,7.38
2023-01-15T20:31:47.581Z,7.42
2023-01-15T20:36:47.280Z,6.98
2023-01-15T20:41:47.266Z,7.04
2023-01-15T20:46:47.239Z,7.13
2023-01-15T20:51:48.641Z,7.40
2023-01-15T20:56:47.023Z,7.59
2023-01-15T21:01:46.954Z,7.38
2023-01-15T21:27:16.256Z,7.41
2023-01-15T21:32:15.530Z,7.81
2023-01-15T21:37:15.705Z,7.81
2023-01-15T21:42:15.419Z,7.58
2023-01-15T21:47:15.302Z,7.49
2023-01-15T21:52:15.419Z,7.56
2023-01-15T21:57:15.231Z,7.35
2023-01-15T22:02:15.377Z,7.31
2023-01-15T22:07:15.105Z,7.37
2023-01-15T22:12:15.103Z,7.22
2023-01-15T22:17:18.074Z,7.23
2023-01-15T22:22:14.936Z,6.90
2023-01-15T22:27:14.821Z,7.59
2023-01-15T22:32:14.861Z,7.37
2023-01-15T22:37:14.837Z,7.29
2023-01-15T22:42:14.672Z,7.04
2023-01-15T22:47:14.564Z,7.24
2023-01-15T22:52:14.464Z,6.97
2023-01-15T22:57:14.487Z,6.71
2023-01-15T23:02:14.478Z,6.97
2023-01-15T23:08:46.865Z,7.07
2023-01-15T23:13:46.694Z,7.05
2023-01-15T23:18:46.614Z,6.83
2023-01-15T23:23:46.663Z,6.98
2023-01-15T23:28:46.585Z,7.05
2023-01-15T23:33:46.620Z,6.80
2023-01-15T23:38:46.539Z,6.56
2023-01-15T23:43:46.409Z,6.56
2023-01-15T23:48:46.313Z,6.94
2023-01-15T23:53:46.124Z,6.94
2023-01-15T23:58:49.218Z,7.02
